Time;durP1;ratioP1;P1;durP2;ratioP2;P2;SDS_P1;SDS_P2;PMS_P1;PMS_P2;Temp;Humidity;BMP_temperature;BMP_pressure;BME280_temperature;BME280_humidity;BME280_pressure;Samples;Min_cycle;Max_cycle;Signal;HPM_P1;HPM_P2
2022/04/03 00:00:16;;;;;;;2.55;1.50;;;;;;;;;;4506430;28;20087;-68
2022/04/03 00:02:27;;;;;;;1.87;1.53;;;;;;;;;;4505211;28;32982;-68
2022/04/03 00:04:37;;;;;;;1.40;1.30;;;;;;;;;;4505558;28;25442;-68
2022/04/03 00:06:47;;;;;;;2.63;1.60;;;;;;;;;;4503767;28;35052;-67
2022/04/03 00:08:58;;;;;;;1.50;1.40;;;;;;;;;;4506745;28;20022;-68
2022/04/03 00:11:11;;;;;;;2.20;1.60;;;;;;;;;;4506909;28;20056;-68
2022/04/03 00:13:22;;;;;;;3.03;1.50;;;;;;;;;;4505690;28;20025;-68
2022/04/03 00:15:33;;;;;;;2.87;1.60;;;;;;;;;;4505751;28;20033;-68
2022/04/03 00:17:43;;;;;;;2.07;1.40;;;;;;;;;;4507197;28;20073;-67
2022/04/03 00:19:54;;;;;;;2.15;1.60;;;;;;;;;;4507780;28;20501;-68
2022/04/03 00:22:04;;;;;;;2.07;1.40;;;;;;;;;;4507400;28;20029;-68
2022/04/03 00:24:15;;;;;;;2.13;1.53;;;;;;;;;;4506315;28;20412;-68
2022/04/03 00:26:25;;;;;;;2.20;1.63;;;;;;;;;;4508683;28;20040;-68
2022/04/03 00:28:36;;;;;;;1.80;1.30;;;;;;;;;;4506773;28;20179;-68
2022/04/03 00:30:46;;;;;;;2.23;1.60;;;;;;;;;;4506737;28;20059;-68
2022/04/03 00:32:57;;;;;;;2.10;1.40;;;;;;;;;;4506639;28;20021;-68
2022/04/03 00:35:08;;;;;;;3.07;1.53;;;;;;;;;;4499311;28;20025;-68
2022/04/03 00:37:18;;;;;;;2.13;1.60;;;;;;;;;;4505245;28;20038;-68
2022/04/03 00:39:29;;;;;;;1.37;1.10;;;;;;;;;;4506094;28;20022;-68
2022/04/03 00:41:40;;;;;;;2.90;1.60;;;;;;;;;;4504497;28;44493;-68
2022/04/03 00:43:51;;;;;;;2.65;1.70;;;;;;;;;;4520976;28;20026;-68
2022/04/03 00:46:03;;;;;;;2.00;1.40;;;;;;;;;;4505947;28;20037;-68
2022/04/03 00:48:14;;;;;;;3.40;1.60;;;;;;;;;;4505729;28;20901;-68
2022/04/03 00:50:25;;;;;;;1.42;1.33;;;;;;;;;;4505897;28;20026;-68
2022/04/03 00:52:37;;;;;;;1.65;1.40;;;;;;;;;;4505930;28;20026;-68
2022/04/03 00:54:47;;;;;;;2.20;1.27;;;;;;;;;;4506401;28;20263;-68
2022/04/03 00:56:58;;;;;;;2.30;1.60;;;;;;;;;;4505242;28;23619;-68
2022/04/03 00:59:11;;;;;;;3.30;1.80;;;;;;;;;;4505789;28;20037;-68
2022/04/03 01:01:22;;;;;;;1.63;1.40;;;;;;;;;;4506701;28;20034;-68
2022/04/03 01:03:32;;;;;;;2.10;1.53;;;;;;;;;;4507835;28;20034;-68
2022/04/03 01:05:43;;;;;;;1.93;1.50;;;;;;;;;;4504736;28;20036;-68
2022/04/03 01:07:53;;;;;;;2.13;1.50;;;;;;;;;;4506646;28;20033;-68
2022/04/03 01:10:04;;;;;;;1.87;1.60;;;;;;;;;;4507054;28;36664;-68
2022/04/03 01:12:14;;;;;;;2.63;1.90;;;;;;;;;;4505547;28;20034;-68
2022/04/03 01:14:35;;;;;;;2.33;1.80;;;;;;;;;;4506742;28;20026;-68
2022/04/03 01:16:45;;;;;;;1.63;1.40;;;;;;;;;;4503703;28;20038;-68
2022/04/03 01:18:55;;;;;;;2.37;1.50;;;;;;;;;;4506252;28;20040;-68
2022/04/03 01:21:06;;;;;;;3.03;1.80;;;;;;;;;;4504991;28;20027;-68
2022/04/03 01:23:16;;;;;;;2.47;1.47;;;;;;;;;;4520653;28;20768;-68
2022/04/03 01:25:27;;;;;;;2.07;1.57;;;;;;;;;;4503687;28;20781;-68
2022/04/03 01:27:38;;;;;;;2.87;1.77;;;;;;;;;;4505393;28;20053;-68
2022/04/03 01:29:50;;;;;;;2.00;1.60;;;;;;;;;;4504867;28;20026;-68
2022/04/03 01:32:00;;;;;;;3.28;1.67;;;;;;;;;;4521427;28;20029;-68
2022/04/03 01:34:14;;;;;;;2.30;1.88;;;;;;;;;;4520003;28;20039;-68
2022/04/03 01:36:25;;;;;;;2.20;1.65;;;;;;;;;;4505434;28;20056;-68
2022/04/03 01:38:35;;;;;;;2.47;1.60;;;;;;;;;;4506979;28;20028;-68
2022/04/03 01:40:45;;;;;;;1.93;1.57;;;;;;;;;;4514477;28;20276;-68
2022/04/03 01:42:56;;;;;;;2.27;1.70;;;;;;;;;;4504207;28;20034;-68
2022/04/03 01:45:07;;;;;;;2.60;1.60;;;;;;;;;;4505332;28;20024;-68
2022/04/03 01:47:17;;;;;;;2.45;1.60;;;;;;;;;;4504927;28;20034;-68
2022/04/03 01:49:28;;;;;;;2.87;1.83;;;;;;;;;;4512672;28;24249;-68
2022/04/03 01:51:38;;;;;;;2.13;1.53;;;;;;;;;;4504804;28;20037;-68
2022/04/03 01:53:49;;;;;;;2.97;1.70;;;;;;;;;;4491056;28;20033;-68
2022/04/03 01:56:03;;;;;;;2.40;1.87;;;;;;;;;;4504830;28;20389;-68
2022/04/03 01:58:15;;;;;;;2.53;1.70;;;;;;;;;;4506783;28;20672;-68
2022/04/03 02:00:26;;;;;;;2.75;1.70;;;;;;;;;;4503890;28;20034;-67
2022/04/03 02:02:38;;;;;;;2.03;1.60;;;;;;;;;;4504839;28;20026;-69
2022/04/03 02:04:48;;;;;;;3.17;1.75;;;;;;;;;;4505029;28;20876;-68
2022/04/03 02:06:58;;;;;;;2.63;1.83;;;;;;;;;;4504861;28;37508;-68
2022/04/03 02:09:09;;;;;;;3.53;1.90;;;;;;;;;;4506354;28;20037;-68
2022/04/03 02:11:19;;;;;;;2.00;1.63;;;;;;;;;;4505600;28;20353;-68
2022/04/03 02:13:29;;;;;;;2.50;1.77;;;;;;;;;;4505895;28;34528;-68
2022/04/03 02:15:40;;;;;;;2.63;2.00;;;;;;;;;;4504551;28;20034;-68
2022/04/03 02:17:50;;;;;;;2.30;1.90;;;;;;;;;;4504680;28;20117;-68
2022/04/03 02:20:01;;;;;;;2.50;1.97;;;;;;;;;;4505532;28;20993;-68
2022/04/03 02:22:11;;;;;;;2.30;1.60;;;;;;;;;;4502230;28;40058;-68
2022/04/03 02:24:22;;;;;;;3.23;1.90;;;;;;;;;;4504186;28;20022;-68
2022/04/03 02:26:33;;;;;;;2.17;1.80;;;;;;;;;;4503319;28;42964;-68
2022/04/03 02:28:43;;;;;;;1.83;1.52;;;;;;;;;;4507451;28;20022;-68
2022/04/03 02:30:54;;;;;;;3.20;2.00;;;;;;;;;;4508410;28;20018;-67
2022/04/03 02:33:04;;;;;;;2.80;2.00;;;;;;;;;;4507561;28;20037;-68
2022/04/03 02:35:15;;;;;;;2.43;1.90;;;;;;;;;;4509993;28;20032;-68
2022/04/03 02:37:25;;;;;;;2.83;2.07;;;;;;;;;;4506573;28;20026;-68
2022/04/03 02:39:36;;;;;;;3.93;2.20;;;;;;;;;;4508664;28;29525;-68
2022/04/03 02:41:47;;;;;;;2.73;1.90;;;;;;;;;;4506925;28;20034;-68
2022/04/03 02:43:57;;;;;;;2.33;1.75;;;;;;;;;;4514413;28;20233;-68
2022/04/03 02:46:08;;;;;;;2.50;1.83;;;;;;;;;;4507864;28;20030;-68
2022/04/03 02:48:18;;;;;;;2.07;1.77;;;;;;;;;;4509730;28;20022;-68
2022/04/03 02:50:29;;;;;;;3.07;2.00;;;;;;;;;;4510267;28;20088;-68
2022/04/03 02:52:39;;;;;;;2.00;1.60;;;;;;;;;;4522539;28;44547;-68
2022/04/03 02:54:49;;;;;;;2.40;1.87;;;;;;;;;;4509803;28;20058;-68
2022/04/03 02:57:00;;;;;;;2.37;1.80;;;;;;;;;;4499353;28;20037;-68
2022/04/03 02:59:12;;;;;;;3.50;1.80;;;;;;;;;;4508855;28;20057;-68
2022/04/03 03:01:23;;;;;;;3.15;1.83;;;;;;;;;;4506659;28;20029;-68
2022/04/03 03:03:33;;;;;;;2.50;1.77;;;;;;;;;;4508312;28;20620;-68
2022/04/03 03:05:45;;;;;;;2.53;1.90;;;;;;;;;;4506507;28;22789;-68
2022/04/03 03:07:55;;;;;;;;;;;;;;;;;;4507704;28;20638;-68
2022/04/03 03:10:07;;;;;;;2.60;2.10;;;;;;;;;;4514793;28;43710;-68
2022/04/03 03:12:18;;;;;;;2.13;1.80;;;;;;;;;;4505331;28;20305;-68
2022/04/03 03:14:29;;;;;;;2.93;2.00;;;;;;;;;;4507622;28;21856;-67
2022/04/03 03:16:40;;;;;;;2.78;2.10;;;;;;;;;;4523224;28;20037;-68
2022/04/03 03:18:50;;;;;;;4.13;2.20;;;;;;;;;;4499595;28;20468;-68
2022/04/03 03:21:01;;;;;;;2.40;1.90;;;;;;;;;;4507155;28;20048;-68
2022/04/03 03:23:11;;;;;;;2.80;2.13;;;;;;;;;;4507291;28;20026;-68
2022/04/03 03:25:21;;;;;;;2.40;1.93;;;;;;;;;;4515990;28;20030;-68
2022/04/03 03:27:33;;;;;;;2.93;2.10;;;;;;;;;;4507049;28;20034;-69
2022/04/03 03:29:43;;;;;;;;;;;;;;;;;;4506206;28;20069;-68
2022/04/03 03:31:54;;;;;;;2.88;2.10;;;;;;;;;;4506444;28;20008;-68
2022/04/03 03:34:04;;;;;;;2.80;2.10;;;;;;;;;;4507731;28;20037;-68
2022/04/03 03:36:14;;;;;;;2.57;2.10;;;;;;;;;;4507513;28;20075;-68
2022/04/03 03:38:25;;;;;;;3.93;2.40;;;;;;;;;;4506248;28;39809;-68
2022/04/03 03:40:38;;;;;;;3.03;2.10;;;;;;;;;;4505292;28;20049;-68
2022/04/03 03:42:49;;;;;;;2.53;1.75;;;;;;;;;;4506679;28;20229;-68
2022/04/03 03:45:01;;;;;;;2.70;1.90;;;;;;;;;;4506565;28;20018;-68
2022/04/03 03:47:13;;;;;;;2.83;1.70;;;;;;;;;;4504031;28;20038;-68
2022/04/03 03:49:23;;;;;;;2.88;2.08;;;;;;;;;;4507345;28;20327;-68
2022/04/03 03:51:35;;;;;;;2.00;1.63;;;;;;;;;;4507829;28;20034;-68
2022/04/03 03:53:46;;;;;;;2.80;1.92;;;;;;;;;;4521969;28;20236;-68
2022/04/03 03:55:57;;;;;;;2.53;1.93;;;;;;;;;;4507869;28;20038;-67
2022/04/03 03:58:07;;;;;;;2.10;1.70;;;;;;;;;;4508006;28;20594;-68
2022/04/03 04:00:18;;;;;;;2.73;2.00;;;;;;;;;;4505952;28;34365;-68
2022/04/03 04:02:28;;;;;;;2.63;2.10;;;;;;;;;;4507898;28;20504;-68
2022/04/03 04:04:39;;;;;;;3.27;2.00;;;;;;;;;;4521469;28;30685;-68
2022/04/03 04:06:49;;;;;;;2.50;1.80;;;;;;;;;;4505447;28;20025;-69
2022/04/03 04:09:00;;;;;;;3.93;2.10;;;;;;;;;;4505247;28;20539;-68
2022/04/03 04:11:10;;;;;;;2.40;1.83;;;;;;;;;;4523203;28;22703;-68
2022/04/03 04:13:22;;;;;;;3.50;1.90;;;;;;;;;;4508243;28;20022;-68
2022/04/03 04:15:32;;;;;;;2.50;1.90;;;;;;;;;;4506382;28;20033;-68
2022/04/03 04:17:44;;;;;;;3.20;2.17;;;;;;;;;;4506994;28;20040;-68
2022/04/03 04:19:55;;;;;;;2.50;2.00;;;;;;;;;;4521458;28;20013;-68
2022/04/03 04:22:05;;;;;;;2.83;2.30;;;;;;;;;;4504992;28;20097;-67
2022/04/03 04:24:16;;;;;;;3.20;1.90;;;;;;;;;;4508147;28;20456;-68
2022/04/03 04:26:26;;;;;;;2.87;2.23;;;;;;;;;;4505436;28;20101;-68
2022/04/03 04:28:37;;;;;;;2.30;2.00;;;;;;;;;;4506110;28;33040;-68
2022/04/03 04:30:47;;;;;;;2.20;1.90;;;;;;;;;;4508235;28;21359;-68
2022/04/03 04:32:58;;;;;;;2.03;1.70;;;;;;;;;;4506818;28;33301;-68
2022/04/03 04:35:09;;;;;;;2.70;1.90;;;;;;;;;;4506014;28;28902;-68
2022/04/03 04:37:20;;;;;;;2.72;1.90;;;;;;;;;;4506962;28;20607;-67
2022/04/03 04:39:31;;;;;;;2.60;2.10;;;;;;;;;;4504836;28;20038;-68
2022/04/03 04:41:41;;;;;;;2.58;2.00;;;;;;;;;;4506033;28;20156;-68
2022/04/03 04:43:52;;;;;;;2.80;2.00;;;;;;;;;;4506238;28;20093;-69
2022/04/03 04:46:02;;;;;;;2.90;1.90;;;;;;;;;;4514270;28;20049;-68
2022/04/03 04:48:13;;;;;;;2.37;2.00;;;;;;;;;;4507116;28;20030;-68
2022/04/03 04:50:23;;;;;;;2.47;1.93;;;;;;;;;;4506271;28;31311;-68
2022/04/03 04:52:37;;;;;;;2.87;2.07;;;;;;;;;;4506095;28;25096;-69
2022/04/03 04:54:47;;;;;;;2.58;2.10;;;;;;;;;;4508144;28;20828;-68
2022/04/03 04:56:58;;;;;;;2.63;2.00;;;;;;;;;;4505116;28;20080;-68
2022/04/03 04:59:08;;;;;;;3.67;2.10;;;;;;;;;;4504048;28;20096;-68
2022/04/03 05:01:19;;;;;;;2.87;2.00;;;;;;;;;;4505758;28;20026;-68
2022/04/03 05:03:29;;;;;;;3.57;2.07;;;;;;;;;;4504653;28;21375;-68
2022/04/03 05:05:40;;;;;;;2.30;1.97;;;;;;;;;;4504808;28;20049;-68
2022/04/03 05:07:54;;;;;;;2.60;2.10;;;;;;;;;;4503580;28;20081;-68
2022/04/03 05:10:05;;;;;;;2.60;1.75;;;;;;;;;;4519960;28;20036;-68
2022/04/03 05:12:16;;;;;;;2.90;1.70;;;;;;;;;;4505094;28;20649;-68
2022/04/03 05:14:26;;;;;;;2.33;2.00;;;;;;;;;;4505325;28;23711;-68
2022/04/03 05:16:37;;;;;;;2.87;1.87;;;;;;;;;;4503415;28;20093;-68
2022/04/03 05:18:47;;;;;;;3.40;2.00;;;;;;;;;;4503925;28;30817;-67
2022/04/03 05:20:58;;;;;;;2.70;2.00;;;;;;;;;;4503362;28;20034;-68
2022/04/03 05:23:08;;;;;;;3.33;2.23;;;;;;;;;;4503749;28;20037;-68
2022/04/03 05:25:19;;;;;;;3.53;2.13;;;;;;;;;;4504387;28;20025;-68
2022/04/03 05:27:30;;;;;;;2.97;2.40;;;;;;;;;;4505587;28;20411;-68
2022/04/03 05:29:40;;;;;;;3.85;2.30;;;;;;;;;;4502813;28;20076;-68
2022/04/03 05:31:51;;;;;;;2.57;2.00;;;;;;;;;;4503558;28;27643;-68
2022/04/03 05:34:01;;;;;;;2.53;2.10;;;;;;;;;;4505226;28;46012;-67
2022/04/03 05:36:12;;;;;;;2.87;2.20;;;;;;;;;;4504937;28;20045;-68
2022/04/03 05:38:23;;;;;;;3.63;2.30;;;;;;;;;;4503216;28;36241;-68
2022/04/03 05:40:33;;;;;;;2.97;2.40;;;;;;;;;;4505698;28;20036;-68
2022/04/03 05:42:44;;;;;;;3.07;2.10;;;;;;;;;;4507023;28;20088;-68
2022/04/03 05:44:54;;;;;;;3.07;2.10;;;;;;;;;;4505092;28;20115;-67
2022/04/03 05:47:05;;;;;;;2.63;2.10;;;;;;;;;;4503267;28;20037;-68
2022/04/03 05:49:15;;;;;;;2.97;2.20;;;;;;;;;;4503912;28;20106;-68
2022/04/03 05:51:26;;;;;;;2.70;2.17;;;;;;;;;;4505021;28;20038;-68
2022/04/03 05:53:36;;;;;;;3.10;2.23;;;;;;;;;;4505119;28;20065;-67
2022/04/03 05:55:47;;;;;;;3.47;2.57;;;;;;;;;;4503982;28;29494;-68
2022/04/03 05:57:58;;;;;;;3.80;2.60;;;;;;;;;;4503526;28;20026;-68
2022/04/03 06:00:12;;;;;;;2.93;2.37;;;;;;;;;;4506009;28;20025;-68
2022/04/03 06:02:23;;;;;;;4.07;3.28;;;;;;;;;;4502309;28;20034;-68
2022/04/03 06:04:33;;;;;;;3.33;2.50;;;;;;;;;;4503949;28;20316;-68
2022/04/03 06:06:44;;;;;;;4.83;2.83;;;;;;;;;;4503828;28;20025;-68
2022/04/03 06:08:54;;;;;;;3.97;2.80;;;;;;;;;;4504227;28;20113;-68
2022/04/03 06:11:04;;;;;;;3.03;2.47;;;;;;;;;;4504911;28;20026;-68
2022/04/03 06:13:15;;;;;;;3.73;2.40;;;;;;;;;;4503412;28;31851;-68
2022/04/03 06:15:37;;;;;;;3.00;2.40;;;;;;;;;;4502513;28;33278;-68
2022/04/03 06:17:49;;;;;;;3.28;2.35;;;;;;;;;;4504728;28;20073;-68
2022/04/03 06:19:59;;;;;;;4.68;3.55;;;;;;;;;;4504080;28;20568;-68
2022/04/03 06:22:09;;;;;;;6.33;4.57;;;;;;;;;;4504874;28;20026;-67
2022/04/03 06:24:20;;;;;;;4.80;3.80;;;;;;;;;;4503100;28;33794;-68
2022/04/03 06:26:30;;;;;;;6.13;3.63;;;;;;;;;;4518703;28;20029;-68
2022/04/03 06:28:41;;;;;;;5.20;3.50;;;;;;;;;;4503691;28;21810;-68
2022/04/03 06:30:52;;;;;;;7.63;5.67;;;;;;;;;;4504202;28;31159;-68
2022/04/03 06:33:03;;;;;;;7.18;5.72;;;;;;;;;;4503667;28;20571;-68
2022/04/03 06:35:13;;;;;;;4.53;3.43;;;;;;;;;;4504910;28;20030;-68
2022/04/03 06:37:24;;;;;;;2.80;2.30;;;;;;;;;;4503540;28;20344;-68
2022/04/03 06:39:35;;;;;;;3.43;2.60;;;;;;;;;;4504636;28;20034;-68
2022/04/03 06:41:45;;;;;;;3.53;2.35;;;;;;;;;;4506151;28;20026;-68
2022/04/03 06:43:56;;;;;;;2.83;2.00;;;;;;;;;;4503205;28;20034;-68
2022/04/03 06:46:06;;;;;;;3.57;2.20;;;;;;;;;;4503509;28;20033;-68
2022/04/03 06:48:17;;;;;;;3.50;2.20;;;;;;;;;;4504997;28;20033;-68
2022/04/03 06:50:28;;;;;;;3.67;2.53;;;;;;;;;;4506426;28;20061;-68
2022/04/03 06:52:39;;;;;;;3.25;2.28;;;;;;;;;;4505155;28;20101;-68
2022/04/03 06:54:49;;;;;;;3.00;2.20;;;;;;;;;;4505792;28;20033;-68
2022/04/03 06:57:00;;;;;;;2.87;2.17;;;;;;;;;;4503957;28;20050;-68
2022/04/03 06:59:10;;;;;;;3.20;2.50;;;;;;;;;;4502913;28;20031;-68
2022/04/03 07:01:20;;;;;;;2.70;2.17;;;;;;;;;;4505740;28;20018;-68
2022/04/03 07:03:32;;;;;;;3.17;2.20;;;;;;;;;;4503992;28;20033;-68
2022/04/03 07:05:43;;;;;;;3.20;2.20;;;;;;;;;;4520178;28;20064;-68
2022/04/03 07:07:53;;;;;;;3.00;2.20;;;;;;;;;;4520577;28;20044;-68
2022/04/03 07:10:04;;;;;;;5.00;2.27;;;;;;;;;;4505206;28;20108;-68
2022/04/03 07:12:15;;;;;;;2.70;2.27;;;;;;;;;;4503623;28;20157;-68
2022/04/03 07:14:25;;;;;;;3.90;2.10;;;;;;;;;;4500420;28;20034;-69
2022/04/03 07:16:36;;;;;;;3.27;2.17;;;;;;;;;;4507818;28;20041;-69
2022/04/03 07:18:46;;;;;;;2.60;1.90;;;;;;;;;;4491900;28;20116;-68
2022/04/03 07:20:57;;;;;;;3.63;2.53;;;;;;;;;;4507853;28;20034;-68
2022/04/03 07:23:07;;;;;;;3.87;2.00;;;;;;;;;;4507716;28;25464;-69
2022/04/03 07:25:18;;;;;;;3.00;2.03;;;;;;;;;;4507670;28;20034;-69
2022/04/03 07:27:28;;;;;;;2.93;1.93;;;;;;;;;;4506571;28;20036;-69
2022/04/03 07:29:39;;;;;;;2.77;2.07;;;;;;;;;;4507613;28;20013;-68
2022/04/03 07:31:50;;;;;;;3.40;2.10;;;;;;;;;;4492227;28;20163;-68
2022/04/03 07:34:01;;;;;;;3.83;2.40;;;;;;;;;;4505651;28;20563;-68
2022/04/03 07:36:11;;;;;;;2.60;2.20;;;;;;;;;;4505846;28;33477;-69
2022/04/03 07:38:22;;;;;;;3.43;2.10;;;;;;;;;;4522150;28;20036;-68
2022/04/03 07:40:32;;;;;;;3.07;2.17;;;;;;;;;;4506035;28;20540;-68
2022/04/03 07:42:42;;;;;;;3.03;1.90;;;;;;;;;;4507125;28;20026;-68
2022/04/03 07:44:53;;;;;;;2.83;1.90;;;;;;;;;;4507962;28;20053;-68
2022/04/03 07:47:04;;;;;;;3.07;2.10;;;;;;;;;;4507078;28;20058;-69
2022/04/03 07:49:14;;;;;;;3.10;2.20;;;;;;;;;;4507082;28;20029;-69
2022/04/03 07:51:26;;;;;;;3.40;2.30;;;;;;;;;;4509317;28;20029;-68
2022/04/03 07:53:37;;;;;;;2.90;2.00;;;;;;;;;;4506822;28;20030;-68
2022/04/03 07:55:47;;;;;;;2.58;1.88;;;;;;;;;;4492877;28;20049;-69
2022/04/03 07:57:58;;;;;;;2.57;1.97;;;;;;;;;;4508161;28;20030;-68
2022/04/03 08:00:11;;;;;;;3.17;2.07;;;;;;;;;;4506654;28;20030;-68
2022/04/03 08:02:21;;;;;;;3.30;2.10;;;;;;;;;;4505419;28;20057;-68
2022/04/03 08:04:32;;;;;;;3.70;2.10;;;;;;;;;;4506686;28;20075;-68
2022/04/03 08:06:43;;;;;;;3.43;1.90;;;;;;;;;;4505873;28;20148;-68
2022/04/03 08:08:53;;;;;;;3.60;2.20;;;;;;;;;;4507043;28;20033;-68
2022/04/03 08:11:05;;;;;;;3.27;1.87;;;;;;;;;;4508172;28;20017;-69
2022/04/03 08:13:16;;;;;;;3.03;2.10;;;;;;;;;;4505104;28;20034;-68
2022/04/03 08:15:27;;;;;;;3.60;2.10;;;;;;;;;;4506821;28;20038;-69
2022/04/03 08:17:40;;;;;;;3.30;2.00;;;;;;;;;;4506284;28;20802;-69
2022/04/03 08:19:51;;;;;;;3.38;1.92;;;;;;;;;;4506803;28;20109;-69
2022/04/03 08:22:02;;;;;;;3.47;1.80;;;;;;;;;;4509089;28;20026;-69
2022/04/03 08:24:12;;;;;;;2.23;2.00;;;;;;;;;;4506590;28;20030;-68
2022/04/03 08:26:26;;;;;;;3.17;1.80;;;;;;;;;;4519143;28;20029;-68
2022/04/03 08:28:36;;;;;;;2.45;1.52;;;;;;;;;;4506681;28;20010;-69
2022/04/03 08:30:46;;;;;;;3.23;1.70;;;;;;;;;;4508649;28;22839;-69
2022/04/03 08:32:58;;;;;;;2.03;1.47;;;;;;;;;;4506076;28;20029;-69
2022/04/03 08:35:09;;;;;;;3.00;1.70;;;;;;;;;;4505855;28;20569;-69
2022/04/03 08:37:20;;;;;;;1.98;1.40;;;;;;;;;;4503654;28;20045;-69
2022/04/03 08:39:31;;;;;;;4.00;1.60;;;;;;;;;;4505200;28;20033;-69
2022/04/03 08:41:42;;;;;;;2.57;1.60;;;;;;;;;;4505670;28;20036;-69
2022/04/03 08:43:52;;;;;;;1.90;1.30;;;;;;;;;;4489598;28;20018;-69
2022/04/03 08:46:05;;;;;;;2.03;1.53;;;;;;;;;;4506813;28;20510;-69
2022/04/03 08:48:19;;;;;;;2.45;1.60;;;;;;;;;;4504386;28;21784;-69
2022/04/03 08:50:33;;;;;;;1.90;1.38;;;;;;;;;;4507239;28;20633;-69
2022/04/03 08:52:48;;;;;;;3.00;1.48;;;;;;;;;;4506373;28;20025;-65
2022/04/03 08:54:59;;;;;;;2.15;1.23;;;;;;;;;;4503210;28;20669;-66
2022/04/03 08:57:09;;;;;;;1.63;1.00;;;;;;;;;;4505432;28;20189;-67
2022/04/03 08:59:20;;;;;;;2.17;1.30;;;;;;;;;;4504237;28;21981;-66
2022/04/03 09:01:30;;;;;;;1.50;1.00;;;;;;;;;;4505733;28;34937;-65
2022/04/03 09:03:40;;;;;;;2.47;1.30;;;;;;;;;;4503890;28;20116;-65
2022/04/03 09:05:51;;;;;;;1.60;1.40;;;;;;;;;;4503681;28;20057;-65
2022/04/03 09:08:01;;;;;;;2.03;1.20;;;;;;;;;;4506937;28;20113;-65
2022/04/03 09:10:16;;;;;;;1.50;1.10;;;;;;;;;;4505982;28;20048;-65
2022/04/03 09:12:27;;;;;;;1.73;1.13;;;;;;;;;;4505426;28;21261;-65
2022/04/03 09:14:48;;;;;;;1.57;1.20;;;;;;;;;;4505711;28;20112;-65
2022/04/03 09:16:59;;;;;;;1.77;1.20;;;;;;;;;;4504391;28;20042;-65
2022/04/03 09:19:09;;;;;;;1.93;1.00;;;;;;;;;;4503008;28;20026;-65
2022/04/03 09:21:25;;;;;;;1.30;1.20;;;;;;;;;;4503188;28;20861;-65
2022/04/03 09:24:08;;;;;;;2.08;1.10;;;;;;;;;;4488908;28;20129;-65
2022/04/03 09:26:21;;;;;;;2.28;1.00;;;;;;;;;;4503722;28;20098;-65
2022/04/03 09:28:37;;;;;;;2.33;1.27;;;;;;;;;;4504961;28;20612;-65
2022/04/03 09:30:49;;;;;;;2.15;1.27;;;;;;;;;;4508438;28;20017;-65
2022/04/03 09:33:01;;;;;;;1.38;1.00;;;;;;;;;;4503912;28;20133;-66
2022/04/03 09:35:12;;;;;;;2.15;1.20;;;;;;;;;;4504971;28;20026;-65
2022/04/03 09:37:23;;;;;;;1.23;1.00;;;;;;;;;;4503459;28;20717;-65
2022/04/03 09:39:33;;;;;;;1.40;1.00;;;;;;;;;;4503782;28;20045;-65
2022/04/03 09:42:19;;;;;;;1.30;1.07;;;;;;;;;;4512767;28;20025;-65
2022/04/03 09:44:34;;;;;;;2.05;1.23;;;;;;;;;;4494617;28;20197;-65
2022/04/03 09:46:44;;;;;;;1.85;1.05;;;;;;;;;;4511611;28;20055;-65
2022/04/03 09:48:54;;;;;;;1.03;0.83;;;;;;;;;;4511209;28;20047;-65
2022/04/03 09:51:19;;;;;;;1.80;1.10;;;;;;;;;;4494220;28;31069;-63
2022/04/03 09:53:39;;;;;;;2.35;1.45;;;;;;;;;;4473636;28;20027;-63
2022/04/03 09:55:50;;;;;;;1.75;1.00;;;;;;;;;;4502559;28;20048;-64
2022/04/03 09:58:04;;;;;;;1.40;1.00;;;;;;;;;;4511605;28;20028;-61
2022/04/03 10:00:34;;;;;;;2.50;1.15;;;;;;;;;;4495189;28;20034;-64
2022/04/03 10:02:46;;;;;;;1.00;0.80;;;;;;;;;;4511425;28;20148;-62
2022/04/03 10:04:58;;;;;;;1.27;0.80;;;;;;;;;;4495995;28;20049;-63
2022/04/03 10:07:12;;;;;;;1.30;0.70;;;;;;;;;;4511259;28;20069;-65
2022/04/03 10:09:23;;;;;;;2.00;0.90;;;;;;;;;;4502277;28;20377;-65
2022/04/03 10:11:33;;;;;;;2.40;1.00;;;;;;;;;;4511436;28;40702;-64
2022/04/03 10:13:44;;;;;;;0.60;0.60;;;;;;;;;;4495710;28;20062;-65
2022/04/03 10:15:55;;;;;;;1.08;0.90;;;;;;;;;;4506059;28;20076;-64
2022/04/03 10:18:05;;;;;;;1.53;1.00;;;;;;;;;;4502521;28;34026;-64
2022/04/03 10:20:16;;;;;;;1.63;0.90;;;;;;;;;;4505788;28;20093;-64
2022/04/03 10:22:29;;;;;;;0.93;0.80;;;;;;;;;;4502103;28;20084;-65
2022/04/03 10:24:42;;;;;;;1.92;1.00;;;;;;;;;;4506340;28;20026;-65
2022/04/03 10:27:04;;;;;;;0.57;0.57;;;;;;;;;;4503087;28;20766;-65
2022/04/03 10:29:15;;;;;;;2.33;0.88;;;;;;;;;;4511141;28;20029;-66
2022/04/03 10:31:26;;;;;;;1.97;0.80;;;;;;;;;;4505443;28;20029;-65
2022/04/03 10:33:38;;;;;;;1.10;0.70;;;;;;;;;;4505516;28;20070;-65
2022/04/03 10:36:01;;;;;;;1.20;0.90;;;;;;;;;;4518847;28;20021;-63
2022/04/03 10:38:12;;;;;;;2.17;0.85;;;;;;;;;;4504621;28;20026;-63
2022/04/03 10:40:26;;;;;;;2.03;0.80;;;;;;;;;;4504822;28;20026;-64
2022/04/03 10:42:55;;;;;;;1.25;0.90;;;;;;;;;;4503370;28;20033;-65
2022/04/03 10:45:12;;;;;;;1.42;0.80;;;;;;;;;;4503470;28;20018;-64
2022/04/03 10:47:22;;;;;;;1.35;0.90;;;;;;;;;;4502874;28;20050;-65
2022/04/03 10:50:00;;;;;;;1.10;0.70;;;;;;;;;;4505628;28;20747;-64
2022/04/03 10:52:36;;;;;;;0.98;0.70;;;;;;;;;;4505251;28;20045;-64
2022/04/03 10:54:57;;;;;;;1.17;0.80;;;;;;;;;;4507466;28;20588;-64
2022/04/03 10:57:43;;;;;;;2.50;1.63;;;;;;;;;;4509563;28;21265;-64
2022/04/03 11:00:12;;;;;;;1.20;0.90;;;;;;;;;;4506931;28;20033;-64
2022/04/03 11:02:22;;;;;;;1.10;0.90;;;;;;;;;;4506781;28;20598;-64
2022/04/03 11:04:32;;;;;;;1.57;0.93;;;;;;;;;;4515358;28;25289;-64
2022/04/03 11:06:45;;;;;;;0.93;0.70;;;;;;;;;;4519973;28;20053;-65
2022/04/03 11:09:00;;;;;;;1.20;0.77;;;;;;;;;;4498781;28;20080;-64
2022/04/03 11:11:10;;;;;;;1.35;0.90;;;;;;;;;;4507085;28;20132;-65
2022/04/03 11:13:30;;;;;;;0.77;0.73;;;;;;;;;;4506055;28;20022;-64
2022/04/03 11:15:50;;;;;;;1.58;0.90;;;;;;;;;;4510471;28;20117;-64
2022/04/03 11:18:27;;;;;;;1.27;0.75;;;;;;;;;;4506817;28;20086;-63
2022/04/03 11:20:42;;;;;;;2.53;0.88;;;;;;;;;;4521798;28;20026;-64
2022/04/03 11:22:53;;;;;;;1.63;1.00;;;;;;;;;;4507632;28;20557;-65
2022/04/03 11:25:04;;;;;;;1.50;0.80;;;;;;;;;;4506081;28;20348;-64
2022/04/03 11:27:14;;;;;;;0.93;0.70;;;;;;;;;;4505482;28;20026;-64
2022/04/03 11:29:25;;;;;;;0.90;0.67;;;;;;;;;;4515009;28;20037;-65
2022/04/03 11:31:38;;;;;;;1.33;0.70;;;;;;;;;;4504264;28;20076;-64
2022/04/03 11:33:49;;;;;;;1.48;0.70;;;;;;;;;;4505018;28;20026;-64
2022/04/03 11:36:06;;;;;;;1.33;0.52;;;;;;;;;;4513772;28;20084;-64
2022/04/03 11:38:17;;;;;;;0.85;0.60;;;;;;;;;;4505308;28;20080;-64
2022/04/03 11:40:28;;;;;;;0.85;0.50;;;;;;;;;;4505496;28;20030;-64
2022/04/03 11:42:39;;;;;;;2.80;0.60;;;;;;;;;;4504939;28;20328;-64
2022/04/03 11:44:53;;;;;;;2.20;0.50;;;;;;;;;;4522707;28;20087;-64
2022/04/03 11:47:05;;;;;;;1.65;0.60;;;;;;;;;;4506580;28;20116;-64
2022/04/03 11:49:22;;;;;;;;;;;;;;;;;;4506785;28;20118;-64
2022/04/03 11:51:32;;;;;;;1.08;0.50;;;;;;;;;;4507899;28;20492;-65
2022/04/03 11:53:46;;;;;;;1.23;0.40;;;;;;;;;;4505754;28;20117;-65
2022/04/03 11:55:56;;;;;;;1.15;0.50;;;;;;;;;;4505928;28;20106;-64
2022/04/03 11:58:07;;;;;;;1.10;0.60;;;;;;;;;;4507152;28;20936;-64
2022/04/03 12:00:22;;;;;;;1.07;0.70;;;;;;;;;;4505454;28;20377;-64
2022/04/03 12:02:32;;;;;;;1.90;0.80;;;;;;;;;;4514135;28;20570;-64
2022/04/03 12:04:43;;;;;;;0.60;0.50;;;;;;;;;;4503394;28;20068;-64
2022/04/03 12:07:00;;;;;;;1.00;0.57;;;;;;;;;;4520255;28;33057;-64
2022/04/03 12:09:13;;;;;;;0.85;0.52;;;;;;;;;;4504760;28;20064;-65
2022/04/03 12:11:29;;;;;;;1.70;0.68;;;;;;;;;;4506395;28;20034;-64
2022/04/03 12:13:39;;;;;;;0.77;0.63;;;;;;;;;;4506363;28;20124;-64
2022/04/03 12:15:50;;;;;;;1.67;0.60;;;;;;;;;;4504017;28;29606;-65
2022/04/03 12:18:02;;;;;;;2.10;0.40;;;;;;;;;;4506424;28;20078;-64
2022/04/03 12:20:12;;;;;;;1.23;0.60;;;;;;;;;;4504568;28;20018;-65
2022/04/03 12:22:25;;;;;;;1.47;0.57;;;;;;;;;;4505000;28;20030;-65
2022/04/03 12:24:36;;;;;;;1.60;0.63;;;;;;;;;;4504945;28;20040;-64
2022/04/03 12:26:50;;;;;;;;;;;;;;;;;;4506482;28;20051;-64
2022/04/03 12:29:01;;;;;;;2.15;1.17;;;;;;;;;;4506343;28;20595;-64
2022/04/03 12:31:13;;;;;;;2.25;0.77;;;;;;;;;;4505678;28;20125;-64
2022/04/03 12:33:23;;;;;;;1.63;0.65;;;;;;;;;;4505479;28;20030;-65
2022/04/03 12:35:34;;;;;;;0.95;0.40;;;;;;;;;;4505531;28;20735;-64
2022/04/03 12:37:45;;;;;;;1.67;0.80;;;;;;;;;;4505317;28;20324;-64
2022/04/03 12:40:05;;;;;;;0.60;0.43;;;;;;;;;;4504230;28;20045;-64
2022/04/03 12:42:24;;;;;;;1.25;0.63;;;;;;;;;;4506283;28;20141;-64
2022/04/03 12:44:49;;;;;;;0.80;0.57;;;;;;;;;;4490851;28;20041;-64
2022/04/03 12:46:59;;;;;;;0.80;0.55;;;;;;;;;;4520591;28;20108;-64
2022/04/03 12:49:17;;;;;;;0.97;0.50;;;;;;;;;;4507354;28;20034;-64
2022/04/03 12:51:28;;;;;;;1.55;0.60;;;;;;;;;;4504582;28;20224;-64
2022/04/03 12:53:49;;;;;;;0.87;0.40;;;;;;;;;;4503596;28;21506;-64
2022/04/03 12:56:03;;;;;;;1.38;0.60;;;;;;;;;;4503405;28;20849;-65
2022/04/03 12:58:24;;;;;;;1.25;0.50;;;;;;;;;;4504980;28;20025;-64
2022/04/03 13:00:35;;;;;;;0.77;0.40;;;;;;;;;;4520454;28;20034;-64
2022/04/03 13:02:46;;;;;;;1.07;0.70;;;;;;;;;;4505364;28;20030;-65
2022/04/03 13:04:58;;;;;;;;;;;;;;;;;;4506448;28;20583;-64
2022/04/03 13:07:10;;;;;;;1.25;0.60;;;;;;;;;;4505017;28;19913;-65
2022/04/03 13:09:20;;;;;;;1.02;0.80;;;;;;;;;;4493930;28;20031;-64
2022/04/03 13:11:43;;;;;;;1.77;1.10;;;;;;;;;;4503204;28;20025;-64
2022/04/03 13:13:53;;;;;;;1.10;1.00;;;;;;;;;;4512233;28;20040;-65